Time;durP1;ratioP1;P1;durP2;ratioP2;P2;SDS_P1;SDS_P2;PMS_P1;PMS_P2;Temp;Humidity;BMP_temperature;BMP_pressure;BME280_temperature;BME280_humidity;BME280_pressure;Samples;Min_cycle;Max_cycle;Signal;HPM_P1;HPM_P2
2021/01/12 00:00:24;;;;;;;21.02;10.23;;;10.20;80.10;;;;;;5011200;28;20034;-69
2021/01/12 00:02:54;;;;;;;13.93;9.63;;;10.20;80.10;;;;;;5004129;28;20255;-69
2021/01/12 00:05:20;;;;;;;15.15;9.10;;;10.20;80.30;;;;;;5002552;28;20041;-70
2021/01/12 00:07:50;;;;;;;15.55;9.77;;;10.20;80.40;;;;;;4989106;28;20504;-69
2021/01/12 00:10:17;;;;;;;15.40;9.10;;;10.30;80.50;;;;;;5004201;28;20026;-69
2021/01/12 00:12:42;;;;;;;12.60;8.07;;;10.30;80.60;;;;;;5009748;28;20105;-69
2021/01/12 00:15:08;;;;;;;14.38;9.05;;;10.30;80.60;;;;;;5007822;28;20165;-70
2021/01/12 00:17:34;;;;;;;13.15;8.00;;;10.30;80.80;;;;;;4987694;28;20050;-70
2021/01/12 00:20:00;;;;;;;12.38;7.65;;;10.20;81.20;;;;;;5003785;28;20033;-70
2021/01/12 00:22:26;;;;;;;14.43;8.27;;;10.20;81.20;;;;;;5009033;28;20049;-70
2021/01/12 00:24:52;;;;;;;13.23;8.15;;;10.30;81.30;;;;;;5007807;28;20037;-69
2021/01/12 00:27:20;;;;;;;14.95;9.02;;;10.30;81.20;;;;;;5010258;28;20527;-69
2021/01/12 00:29:46;;;;;;;13.90;7.93;;;10.40;81.20;;;;;;5009508;28;20145;-70
2021/01/12 00:32:16;;;;;;;13.15;7.50;;;10.30;81.20;;;;;;5001771;28;20115;-70
2021/01/12 00:34:42;;;;;;;14.52;8.70;;;10.40;81.10;;;;;;4995152;28;20092;-70
2021/01/12 00:37:08;;;;;;;15.30;9.60;;;10.40;81.10;;;;;;4988050;28;20476;-70
2021/01/12 00:39:33;;;;;;;12.43;8.45;;;10.40;81.20;;;;;;4996197;28;20484;-69
2021/01/12 00:41:59;;;;;;;11.85;8.48;;;10.40;81.40;;;;;;5005020;28;20125;-71
2021/01/12 00:44:26;;;;;;;13.27;7.97;;;10.40;81.50;;;;;;5010748;28;20045;-70
2021/01/12 00:46:52;;;;;;;16.10;7.93;;;10.40;81.30;;;;;;5011059;28;20038;-70
2021/01/12 00:49:22;;;;;;;13.82;9.30;;;10.50;81.30;;;;;;5002159;28;20034;-73
2021/01/12 00:51:48;;;;;;;14.10;9.02;;;10.40;81.40;;;;;;5008211;28;20027;-70
2021/01/12 00:54:19;;;;;;;14.73;10.25;;;10.30;81.70;;;;;;5008169;28;20045;-70
2021/01/12 00:56:45;;;;;;;14.60;10.68;;;10.40;81.80;;;;;;5011002;28;20079;-70
2021/01/12 00:59:10;;;;;;;16.05;10.93;;;10.30;81.90;;;;;;5009244;28;20029;-70
2021/01/12 01:01:37;;;;;;;15.73;11.30;;;10.30;81.90;;;;;;5014250;28;20053;-69
2021/01/12 01:04:04;;;;;;;14.80;11.02;;;10.30;82.00;;;;;;5013193;28;20054;-69
2021/01/12 01:06:30;;;;;;;17.23;10.27;;;10.30;82.00;;;;;;5010898;28;20034;-70
2021/01/12 01:08:55;;;;;;;15.95;10.80;;;10.40;82.00;;;;;;5009960;28;20045;-70
2021/01/12 01:11:21;;;;;;;17.27;10.82;;;10.30;82.00;;;;;;5009248;28;20033;-69
2021/01/12 01:13:47;;;;;;;15.93;11.55;;;10.30;81.90;;;;;;5007042;28;20105;-70
2021/01/12 01:16:13;;;;;;;16.20;11.25;;;10.40;81.80;;;;;;5012766;28;20026;-70
2021/01/12 01:18:39;;;;;;;15.38;11.13;;;10.40;81.80;;;;;;5006877;28;20096;-70
2021/01/12 01:21:05;;;;;;;18.17;12.43;;;10.50;81.60;;;;;;5001982;28;20038;-70
2021/01/12 01:23:30;;;;;;;14.13;10.43;;;10.50;81.50;;;;;;5004315;28;20083;-69
2021/01/12 01:25:57;;;;;;;16.90;10.95;;;10.50;81.50;;;;;;5009429;28;20050;-70
2021/01/12 01:28:24;;;;;;;14.88;10.45;;;10.40;81.40;;;;;;5008033;28;20038;-70
2021/01/12 01:30:52;;;;;;;14.50;10.00;;;10.40;81.50;;;;;;5006481;28;20050;-69
2021/01/12 01:33:18;;;;;;;14.32;9.63;;;10.50;81.50;;;;;;5004008;28;20033;-70
2021/01/12 01:35:44;;;;;;;18.70;10.07;;;10.50;81.20;;;;;;5005400;28;20038;-70
2021/01/12 01:38:10;;;;;;;13.98;9.73;;;10.50;81.10;;;;;;5009193;28;20410;-70
2021/01/12 01:40:36;;;;;;;14.77;9.98;;;10.50;81.20;;;;;;5007660;28;20043;-70
2021/01/12 01:43:02;;;;;;;15.05;10.23;;;10.50;81.10;;;;;;5009338;28;20387;-70
2021/01/12 01:45:28;;;;;;;11.85;8.25;;;10.60;80.90;;;;;;5004765;28;20030;-70
2021/01/12 01:47:54;;;;;;;14.65;10.52;;;10.60;81.00;;;;;;5007716;28;20026;-70
2021/01/12 01:50:21;;;;;;;15.13;8.27;;;10.60;81.10;;;;;;5011354;28;20040;-70
2021/01/12 01:52:56;;;;;;;13.70;9.52;;;10.50;81.00;;;;;;5005855;28;20029;-69
2021/01/12 01:55:23;;;;;;;12.20;8.35;;;10.60;81.10;;;;;;5008738;28;20056;-70
2021/01/12 01:57:50;;;;;;;12.73;8.55;;;10.60;81.00;;;;;;5006767;28;20025;-69
2021/01/12 02:00:18;;;;;;;11.88;8.73;;;10.60;81.00;;;;;;5012412;28;20037;-70
2021/01/12 02:02:57;;;;;;;12.07;7.88;;;10.50;81.00;;;;;;4999321;28;20088;-69
2021/01/12 02:05:28;;;;;;;12.30;8.25;;;10.50;81.10;;;;;;4997411;28;20028;-70
2021/01/12 02:07:57;;;;;;;10.48;6.97;;;10.50;80.90;;;;;;5007317;28;20041;-69
2021/01/12 02:10:25;;;;;;;13.20;7.97;;;10.50;81.10;;;;;;5012966;28;20032;-70
2021/01/12 02:12:59;;;;;;;11.82;8.82;;;10.40;81.40;;;;;;5009335;28;20038;-70
2021/01/12 02:15:26;;;;;;;11.15;8.25;;;10.50;81.50;;;;;;5011357;28;20030;-70
2021/01/12 02:17:52;;;;;;;11.38;7.65;;;10.50;81.40;;;;;;5005573;28;20065;-70
2021/01/12 02:20:21;;;;;;;13.90;7.82;;;10.50;81.50;;;;;;5006554;28;20391;-69
2021/01/12 02:23:03;;;;;;;11.80;8.18;;;10.50;81.60;;;;;;4988153;28;20041;-70
2021/01/12 02:25:31;;;;;;;12.48;8.45;;;10.40;81.90;;;;;;5009458;28;20488;-70
2021/01/12 02:27:57;;;;;;;12.48;7.75;;;10.40;82.10;;;;;;5009701;28;20456;-70
2021/01/12 02:30:22;;;;;;;13.75;8.02;;;10.40;82.20;;;;;;4998944;28;20044;-69
2021/01/12 02:32:48;;;;;;;11.65;7.28;;;10.40;82.30;;;;;;5013836;28;20034;-69
2021/01/12 02:35:16;;;;;;;11.30;7.60;;;10.40;82.50;;;;;;4998188;28;20047;-70
2021/01/12 02:37:44;;;;;;;11.30;7.53;;;10.50;82.40;;;;;;5008705;28;20140;-70
2021/01/12 02:40:10;;;;;;;11.02;7.40;;;10.50;82.60;;;;;;5013625;28;20045;-69
2021/01/12 02:42:36;;;;;;;12.80;7.65;;;10.50;82.70;;;;;;4993685;28;20223;-69
2021/01/12 02:45:02;;;;;;;12.40;7.18;;;10.50;82.80;;;;;;5011071;28;20212;-70
2021/01/12 02:47:27;;;;;;;12.88;6.72;;;10.40;82.90;;;;;;5012344;28;20037;-70
2021/01/12 02:49:53;;;;;;;12.95;6.88;;;10.50;83.00;;;;;;5009268;28;20497;-69
2021/01/12 02:52:19;;;;;;;10.55;6.45;;;10.50;83.20;;;;;;5009703;28;20034;-70
2021/01/12 02:54:44;;;;;;;12.32;6.90;;;10.50;83.30;;;;;;5008920;28;20030;-69
2021/01/12 02:57:10;;;;;;;11.13;6.32;;;10.50;83.40;;;;;;5010195;28;20136;-70
2021/01/12 02:59:36;;;;;;;11.00;6.20;;;10.50;83.40;;;;;;5013323;28;20136;-69
2021/01/12 03:02:02;;;;;;;11.30;5.85;;;10.50;83.50;;;;;;5012481;28;20049;-69
2021/01/12 03:04:27;;;;;;;11.02;6.72;;;10.50;83.50;;;;;;5010241;28;20337;-70
2021/01/12 03:06:53;;;;;;;11.10;6.20;;;10.50;83.60;;;;;;5009574;28;20041;-70
2021/01/12 03:09:19;;;;;;;9.73;5.82;;;10.50;83.50;;;;;;5007626;28;20033;-70
2021/01/12 03:11:50;;;;;;;11.40;6.22;;;10.60;83.50;;;;;;5012256;28;20034;-69
2021/01/12 03:14:16;;;;;;;11.77;6.13;;;10.60;83.40;;;;;;5010845;28;20022;-70
2021/01/12 03:16:41;;;;;;;10.50;5.95;;;10.70;83.30;;;;;;5009716;28;20037;-70
2021/01/12 03:19:07;;;;;;;10.68;5.10;;;10.70;83.10;;;;;;5010004;28;20093;-70
2021/01/12 03:21:33;;;;;;;10.32;5.75;;;10.70;83.00;;;;;;5008921;28;20084;-69
2021/01/12 03:23:58;;;;;;;10.50;5.95;;;10.70;82.90;;;;;;5003673;28;20030;-70
2021/01/12 03:26:24;;;;;;;9.25;5.35;;;10.80;83.00;;;;;;5005748;28;20041;-70
2021/01/12 03:28:49;;;;;;;10.73;5.43;;;10.70;82.90;;;;;;5007740;28;20133;-70
2021/01/12 03:31:15;;;;;;;8.93;5.72;;;10.70;83.00;;;;;;5004986;28;20121;-70
2021/01/12 03:33:41;;;;;;;11.52;6.00;;;10.70;83.10;;;;;;5006391;28;20080;-70
2021/01/12 03:36:07;;;;;;;9.93;6.25;;;10.70;83.20;;;;;;5010441;28;20030;-70
2021/01/12 03:38:33;;;;;;;10.18;5.32;;;10.70;83.40;;;;;;5006470;28;20045;-70
2021/01/12 03:40:59;;;;;;;10.13;5.35;;;10.70;83.40;;;;;;5011173;28;20041;-70
2021/01/12 03:43:24;;;;;;;9.93;5.63;;;10.80;83.30;;;;;;5011335;28;20080;-70
2021/01/12 03:45:51;;;;;;;9.43;5.68;;;10.70;83.20;;;;;;5009791;28;20091;-70
2021/01/12 03:48:16;;;;;;;11.23;5.97;;;10.70;83.40;;;;;;5004860;28;20432;-71
2021/01/12 03:50:42;;;;;;;11.93;5.07;;;10.70;83.40;;;;;;4996794;28;20057;-71
2021/01/12 03:53:08;;;;;;;8.77;5.18;;;10.70;83.40;;;;;;5007001;28;20068;-71
2021/01/12 03:55:34;;;;;;;10.85;5.75;;;10.70;83.40;;;;;;5006552;28;20535;-71
2021/01/12 03:58:00;;;;;;;8.73;5.47;;;10.80;83.30;;;;;;5009053;28;20037;-70
2021/01/12 04:00:25;;;;;;;11.45;5.38;;;10.70;83.30;;;;;;5008236;28;20471;-71
2021/01/12 04:02:51;;;;;;;13.13;5.72;;;10.70;83.40;;;;;;5008729;28;20065;-70
2021/01/12 04:05:18;;;;;;;9.35;4.85;;;10.70;83.60;;;;;;5006499;28;20026;-70
2021/01/12 04:07:44;;;;;;;9.60;4.70;;;10.70;83.80;;;;;;5004590;28;20034;-71
2021/01/12 04:10:11;;;;;;;8.38;4.07;;;10.70;83.80;;;;;;4980944;28;20129;-71
2021/01/12 04:12:37;;;;;;;7.53;4.00;;;10.70;83.70;;;;;;5007166;28;20162;-71
2021/01/12 04:15:04;;;;;;;6.72;3.67;;;10.70;83.70;;;;;;5003275;28;20112;-71
2021/01/12 04:17:30;;;;;;;7.18;3.85;;;10.80;83.60;;;;;;5004971;28;20038;-71
2021/01/12 04:19:55;;;;;;;7.15;4.10;;;10.80;83.50;;;;;;4980565;28;20042;-71
2021/01/12 04:22:21;;;;;;;10.15;4.35;;;10.90;83.30;;;;;;5011917;28;20121;-71
2021/01/12 04:24:48;;;;;;;8.20;4.18;;;10.90;83.20;;;;;;5013978;28;20048;-71
2021/01/12 04:27:14;;;;;;;8.80;3.78;;;10.90;83.10;;;;;;5006730;28;20053;-71
2021/01/12 04:29:40;;;;;;;9.30;4.88;;;10.90;83.20;;;;;;5011884;28;20886;-71
2021/01/12 04:32:05;;;;;;;7.00;3.83;;;10.90;83.20;;;;;;5007941;28;20029;-70
2021/01/12 04:34:31;;;;;;;8.63;3.70;;;10.90;83.20;;;;;;4994504;28;20155;-71
2021/01/12 04:36:57;;;;;;;7.90;4.03;;;10.90;83.20;;;;;;4999091;28;20502;-71
2021/01/12 04:39:22;;;;;;;8.23;4.00;;;10.90;83.20;;;;;;5011787;28;20395;-71
2021/01/12 04:41:48;;;;;;;8.43;4.13;;;11.00;83.10;;;;;;5005303;28;20037;-71
2021/01/12 04:44:13;;;;;;;9.27;4.38;;;11.00;82.80;;;;;;5011927;28;20034;-71
2021/01/12 04:46:39;;;;;;;8.15;3.70;;;11.00;82.90;;;;;;5004478;28;20049;-71
2021/01/12 04:49:05;;;;;;;6.85;3.97;;;11.00;82.90;;;;;;4995638;28;20400;-71
2021/01/12 04:51:30;;;;;;;6.38;3.08;;;11.00;83.10;;;;;;5007295;28;20092;-71
2021/01/12 04:53:56;;;;;;;6.95;3.55;;;11.00;83.20;;;;;;5011236;28;20056;-71
2021/01/12 04:56:23;;;;;;;8.63;4.32;;;11.00;83.10;;;;;;5012116;28;20057;-71
2021/01/12 04:58:53;;;;;;;7.60;3.65;;;10.90;83.10;;;;;;5008747;28;20041;-71
2021/01/12 05:01:20;;;;;;;8.50;4.43;;;10.90;83.30;;;;;;5013430;28;20062;-70
2021/01/12 05:03:51;;;;;;;7.47;4.40;;;10.90;83.50;;;;;;5011950;28;20026;-71
2021/01/12 05:06:21;;;;;;;11.80;4.65;;;10.90;83.50;;;;;;5010937;28;20026;-71
2021/01/12 05:08:55;;;;;;;10.02;4.30;;;10.90;83.70;;;;;;5008478;28;20113;-71
2021/01/12 05:11:25;;;;;;;7.38;3.85;;;10.90;83.60;;;;;;5009189;28;20052;-71
2021/01/12 05:14:00;;;;;;;7.57;4.18;;;10.90;83.70;;;;;;5009177;28;20962;-71
2021/01/12 05:16:26;;;;;;;6.80;3.72;;;10.90;83.60;;;;;;5012555;28;20030;-71
2021/01/12 05:18:54;;;;;;;9.98;3.83;;;11.00;83.60;;;;;;5007789;28;20061;-71
2021/01/12 05:21:23;;;;;;;10.93;4.22;;;11.00;83.50;;;;;;5011429;28;20088;-71
2021/01/12 05:24:08;;;;;;;8.93;3.83;;;10.90;83.70;;;;;;5012619;28;20033;-71
2021/01/12 05:26:36;;;;;;;8.80;3.80;;;10.90;83.70;;;;;;5011151;28;20056;-71
2021/01/12 05:29:03;;;;;;;7.72;4.55;;;10.90;83.70;;;;;;5011962;28;20030;-71
2021/01/12 05:31:29;;;;;;;10.15;4.35;;;11.00;83.80;;;;;;5010130;28;20053;-71
2021/01/12 05:33:56;;;;;;;15.88;5.60;;;11.00;83.70;;;;;;5009965;28;20061;-69
2021/01/12 05:36:22;;;;;;;14.38;4.50;;;11.10;83.50;;;;;;5008449;28;20170;-69
2021/01/12 05:38:48;;;;;;;9.70;4.65;;;11.10;83.20;;;;;;5007933;28;20045;-69
2021/01/12 05:41:14;;;;;;;10.50;4.32;;;11.20;83.10;;;;;;4993334;28;20045;-69
2021/01/12 05:43:44;;;;;;;10.93;4.53;;;11.20;83.00;;;;;;5009745;28;20462;-68
2021/01/12 05:46:14;;;;;;;8.75;4.38;;;11.30;82.80;;;;;;5010169;28;20038;-69
2021/01/12 05:48:44;;;;;;;11.48;4.60;;;11.30;82.60;;;;;;5007428;28;20042;-69
2021/01/12 05:51:13;;;;;;;10.60;5.70;;;11.30;82.60;;;;;;5009199;28;20029;-70
2021/01/12 05:53:45;;;;;;;10.10;4.03;;;11.30;82.60;;;;;;5009540;28;20034;-70
2021/01/12 05:56:24;;;;;;;11.48;5.32;;;11.20;82.70;;;;;;5010689;28;20026;-69
2021/01/12 05:58:52;;;;;;;8.30;5.10;;;11.10;83.00;;;;;;5011248;28;20117;-69
2021/01/12 06:01:40;;;;;;;12.60;5.40;;;11.10;83.60;;;;;;5010259;28;20392;-70
2021/01/12 06:04:10;;;;;;;8.05;3.72;;;11.00;83.80;;;;;;5010011;28;20490;-70
2021/01/12 06:06:40;;;;;;;5.90;2.60;;;11.00;83.80;;;;;;5011062;28;20044;-69
2021/01/12 06:09:10;;;;;;;6.28;2.90;;;11.00;83.80;;;;;;5011029;28;20057;-69
2021/01/12 06:11:37;;;;;;;6.10;4.22;;;10.90;83.40;;;;;;5010273;28;20096;-70
2021/01/12 06:14:12;;;;;;;4.90;2.00;;;11.00;83.30;;;;;;5008439;28;20038;-69
2021/01/12 06:16:40;;;;;;;4.13;2.03;;;11.00;83.20;;;;;;5008378;28;20037;-70
2021/01/12 06:19:12;;;;;;;4.32;2.30;;;11.00;83.30;;;;;;5006489;28;20045;-69
2021/01/12 06:22:03;;;;;;;5.97;2.90;;;11.00;83.20;;;;;;5011680;28;20041;-70
2021/01/12 06:24:40;;;;;;;5.93;2.38;;;11.10;83.00;;;;;;5011002;28;20491;-69
2021/01/12 06:27:11;;;;;;;6.03;2.75;;;11.10;82.90;;;;;;5008695;28;20525;-70
2021/01/12 06:29:40;;;;;;;6.53;3.15;;;11.10;82.90;;;;;;5000867;28;20049;-69
2021/01/12 06:32:05;;;;;;;5.75;3.03;;;11.20;82.70;;;;;;5008247;28;20452;-70
2021/01/12 06:34:32;;;;;;;7.53;3.65;;;11.30;82.50;;;;;;5006034;28;20056;-69
2021/01/12 06:36:59;;;;;;;6.45;3.72;;;11.30;82.30;;;;;;5011344;28;20113;-71
2021/01/12 06:39:47;;;;;;;8.27;4.22;;;11.30;82.20;;;;;;5008967;28;20030;-70
2021/01/12 06:42:24;;;;;;;8.93;3.53;;;11.30;82.20;;;;;;5004946;28;20026;-70
2021/01/12 06:44:51;;;;;;;7.82;3.60;;;11.20;82.20;;;;;;4995394;28;20053;-70
2021/01/12 06:47:19;;;;;;;9.57;4.05;;;11.10;82.60;;;;;;4998448;28;20033;-70
2021/01/12 06:49:45;;;;;;;6.53;3.00;;;11.10;82.80;;;;;;5003960;28;20148;-71
2021/01/12 06:52:13;;;;;;;7.85;3.05;;;11.10;82.90;;;;;;5008280;28;20120;-70
2021/01/12 06:54:38;;;;;;;5.57;3.17;;;11.10;82.90;;;;;;5005268;28;20529;-70
2021/01/12 06:57:09;;;;;;;6.68;3.58;;;11.10;82.80;;;;;;5009606;28;20109;-70
2021/01/12 06:59:45;;;;;;;7.78;3.50;;;11.10;82.80;;;;;;5006728;28;20040;-71
2021/01/12 07:02:31;;;;;;;5.55;2.85;;;11.10;82.80;;;;;;5007723;28;20057;-71
2021/01/12 07:05:05;;;;;;;7.63;3.00;;;11.10;82.90;;;;;;5001479;28;20041;-71
2021/01/12 07:07:33;;;;;;;8.05;3.25;;;11.10;82.80;;;;;;5005473;28;20103;-71
2021/01/12 07:10:01;;;;;;;6.90;3.10;;;11.10;82.70;;;;;;5007095;28;20029;-71
2021/01/12 07:12:28;;;;;;;6.63;3.20;;;11.10;82.90;;;;;;4990623;28;20491;-71
2021/01/12 07:15:01;;;;;;;6.47;3.13;;;11.00;82.80;;;;;;5007133;28;20482;-71
2021/01/12 07:17:28;;;;;;;7.93;3.25;;;11.00;82.90;;;;;;5008914;28;20112;-71
2021/01/12 07:20:14;;;;;;;9.68;4.05;;;11.00;82.90;;;;;;5002881;28;20035;-71
2021/01/12 07:23:09;;;;;;;6.95;2.70;;;11.00;82.70;;;;;;4990033;28;20057;-70
2021/01/12 07:25:43;;;;;;;6.78;2.97;;;10.90;82.30;;;;;;5005182;28;20038;-71
2021/01/12 07:28:22;;;;;;;8.75;3.22;;;10.90;82.50;;;;;;5005967;28;20042;-70
2021/01/12 07:30:50;;;;;;;7.13;2.97;;;10.80;82.50;;;;;;5008425;28;20025;-71
2021/01/12 07:33:20;;;;;;;9.15;3.85;;;10.90;82.70;;;;;;5009585;28;20044;-71
2021/01/12 07:35:48;;;;;;;8.02;2.90;;;10.90;82.60;;;;;;5005034;28;20065;-71
2021/01/12 07:38:16;;;;;;;8.07;3.38;;;10.90;82.50;;;;;;5005353;28;20092;-71
2021/01/12 07:40:41;;;;;;;7.20;3.90;;;10.90;82.40;;;;;;5007423;28;20040;-71
2021/01/12 07:43:16;;;;;;;9.90;3.80;;;10.90;82.30;;;;;;5011198;28;20503;-71
2021/01/12 07:45:42;;;;;;;8.23;4.05;;;11.00;82.10;;;;;;5005204;28;20037;-71
2021/01/12 07:48:09;;;;;;;9.98;4.63;;;11.00;82.10;;;;;;5004498;28;20037;-72
2021/01/12 07:50:35;;;;;;;7.25;3.33;;;11.00;82.10;;;;;;5006270;28;20032;-71
2021/01/12 07:53:05;;;;;;;10.55;4.38;;;10.90;82.00;;;;;;5008205;28;20117;-71
2021/01/12 07:55:31;;;;;;;7.88;3.60;;;10.90;82.20;;;;;;5012068;28;20475;-71
2021/01/12 07:57:57;;;;;;;7.38;3.28;;;10.80;82.20;;;;;;4987659;28;20052;-71
2021/01/12 08:00:24;;;;;;;8.30;4.07;;;10.90;82.30;;;;;;4969714;28;20709;-71
2021/01/12 08:02:52;;;;;;;7.60;3.60;;;10.80;82.10;;;;;;4983276;28;20234;-71
2021/01/12 08:05:20;;;;;;;9.65;3.58;;;10.80;82.10;;;;;;5004206;28;20180;-71
2021/01/12 08:07:45;;;;;;;8.35;3.10;;;10.90;82.10;;;;;;4998611;28;20515;-70
2021/01/12 08:10:11;;;;;;;8.57;3.72;;;10.80;82.00;;;;;;5002074;28;20034;-70
2021/01/12 08:12:37;;;;;;;9.88;3.97;;;10.80;82.10;;;;;;5001264;28;20761;-71
2021/01/12 08:15:14;;;;;;;8.02;3.20;;;10.80;82.20;;;;;;4991016;28;20101;-72
2021/01/12 08:17:50;;;;;;;9.02;3.72;;;10.80;82.40;;;;;;4993748;28;20505;-71
2021/01/12 08:20:18;;;;;;;7.68;3.60;;;10.80;82.50;;;;;;4990257;28;20041;-70
2021/01/12 08:22:54;;;;;;;6.60;3.75;;;10.70;82.40;;;;;;4990596;28;20049;-71
2021/01/12 08:25:21;;;;;;;8.88;3.47;;;10.70;82.40;;;;;;4985377;28;20811;-72
2021/01/12 08:27:56;;;;;;;6.55;3.40;;;10.70;82.70;;;;;;4991443;28;20058;-72
2021/01/12 08:30:27;;;;;;;6.63;4.13;;;10.60;82.70;;;;;;4992420;28;20049;-71
2021/01/12 08:33:02;;;;;;;6.40;3.53;;;10.60;82.50;;;;;;4990986;28;20030;-72
2021/01/12 08:35:31;;;;;;;9.90;5.03;;;10.50;82.80;;;;;;4988591;28;20170;-72
2021/01/12 08:37:58;;;;;;;6.85;3.78;;;10.50;82.80;;;;;;5005386;28;20083;-72
2021/01/12 08:40:28;;;;;;;8.60;3.92;;;10.50;82.70;;;;;;5015346;28;20040;-71
2021/01/12 08:42:55;;;;;;;7.28;3.85;;;10.50;82.80;;;;;;5009220;28;20049;-71
2021/01/12 08:45:21;;;;;;;6.25;3.08;;;10.50;82.90;;;;;;5006573;28;20108;-71
2021/01/12 08:47:47;;;;;;;6.22;3.10;;;10.40;82.80;;;;;;4986867;28;20037;-71
2021/01/12 08:50:13;;;;;;;5.05;2.00;;;10.30;81.50;;;;;;4974749;28;20037;-72
2021/01/12 08:52:44;;;;;;;5.68;1.80;;;10.10;81.20;;;;;;4990988;28;20057;-73
2021/01/12 08:55:20;;;;;;;4.80;2.38;;;10.00;81.60;;;;;;4988675;28;20775;-76
2021/01/12 08:58:08;;;;;;;5.07;1.80;;;10.00;81.70;;;;;;4989172;28;20053;-70
2021/01/12 09:00:39;;;;;;;5.20;1.90;;;10.00;81.20;;;;;;4995349;28;20967;-72
2021/01/12 09:03:07;;;;;;;5.38;1.85;;;9.90;81.10;;;;;;5006928;28;20056;-76
2021/01/12 09:05:37;;;;;;;5.72;2.15;;;9.90;81.10;;;;;;4990288;28;20030;-77
2021/01/12 09:08:06;;;;;;;4.60;1.73;;;10.00;81.00;;;;;;4993923;28;20037;-72
2021/01/12 09:10:39;;;;;;;4.10;1.50;;;10.00;80.40;;;;;;4999867;28;20058;-73
2021/01/12 09:13:06;;;;;;;2.72;1.23;;;10.00;80.60;;;;;;4993298;28;20225;-76
2021/01/12 09:15:36;;;;;;;4.80;1.67;;;10.20;80.50;;;;;;4996129;28;20030;-76
2021/01/12 09:18:09;;;;;;;3.30;1.30;;;10.30;78.80;;;;;;4990085;28;20816;-75
2021/01/12 09:20:39;;;;;;;2.85;1.10;;;10.20;78.70;;;;;;4996520;28;20108;-75
2021/01/12 09:23:10;;;;;;;7.93;1.83;;;10.10;79.30;;;;;;4995415;28;20033;-76
2021/01/12 09:25:38;;;;;;;3.35;1.65;;;10.00;79.10;;;;;;4994312;28;20030;-76
2021/01/12 09:28:13;;;;;;;6.47;2.03;;;10.00;79.70;;;;;;5002405;28;20069;-71
2021/01/12 09:30:40;;;;;;;4.00;1.35;;;9.90;80.00;;;;;;4994461;28;20732;-74
2021/01/12 09:33:06;;;;;;;3.67;1.42;;;9.90;80.00;;;;;;4986003;28;20031;-72
2021/01/12 09:35:32;;;;;;;5.55;2.00;;;9.80;80.00;;;;;;4990619;28;20042;-71
2021/01/12 09:37:59;;;;;;;5.80;1.73;;;9.90;80.10;;;;;;4996418;28;20318;-71
2021/01/12 09:40:25;;;;;;;5.07;1.33;;;9.90;79.90;;;;;;4993260;28;20042;-71
2021/01/12 09:42:51;;;;;;;6.22;2.13;;;9.80;79.90;;;;;;4993041;28;20060;-71
2021/01/12 09:45:17;;;;;;;7.78;1.88;;;9.80;80.40;;;;;;4990332;28;20835;-71
2021/01/12 09:47:42;;;;;;;5.72;2.08;;;9.80;80.70;;;;;;4995358;28;20046;-76
2021/01/12 09:50:09;;;;;;;7.20;2.47;;;9.70;80.70;;;;;;4992649;28;20231;-75
2021/01/12 09:52:34;;;;;;;4.82;2.03;;;9.70;81.50;;;;;;4994940;28;20070;-73
2021/01/12 09:55:01;;;;;;;6.07;1.60;;;9.70;81.70;;;;;;4995865;28;20130;-72
2021/01/12 09:57:26;;;;;;;5.72;1.70;;;9.70;81.70;;;;;;4994154;28;20089;-71
2021/01/12 09:59:52;;;;;;;5.72;2.47;;;9.70;81.80;;;;;;4993165;28;20054;-70
2021/01/12 10:02:18;;;;;;;5.40;1.67;;;9.70;81.10;;;;;;4978663;28;20662;-70
2021/01/12 10:04:45;;;;;;;6.05;1.90;;;9.80;81.20;;;;;;4982435;28;20421;-70
2021/01/12 10:07:10;;;;;;;5.25;1.30;;;9.80;80.80;;;;;;4994277;28;20034;-71
2021/01/12 10:09:37;;;;;;;4.28;1.45;;;9.80;80.50;;;;;;4994224;28;20813;-72
2021/01/12 10:12:04;;;;;;;6.57;1.60;;;9.70;80.80;;;;;;4993753;28;20037;-73
2021/01/12 10:14:30;;;;;;;6.93;2.50;;;9.70;81.20;;;;;;4991424;28;20116;-72
2021/01/12 10:16:56;;;;;;;5.25;1.42;;;9.70;81.00;;;;;;4990976;28;20163;-72
2021/01/12 10:19:24;;;;;;;3.95;1.20;;;9.70;80.80;;;;;;4989202;28;20038;-73
2021/01/12 10:21:50;;;;;;;6.95;1.90;;;9.70;81.00;;;;;;4993338;28;20038;-70
2021/01/12 10:24:16;;;;;;;8.70;1.98;;;9.70;81.00;;;;;;4990786;28;20603;-70
2021/01/12 10:26:43;;;;;;;5.97;1.40;;;9.70;80.40;;;;;;4989016;28;20088;-69
2021/01/12 10:29:10;;;;;;;3.63;1.25;;;9.60;80.40;;;;;;4980092;28;20139;-70
2021/01/12 10:31:37;;;;;;;2.72;1.00;;;9.70;80.50;;;;;;4995213;28;20462;-71
2021/01/12 10:34:03;;;;;;;3.65;1.30;;;9.70;79.80;;;;;;4988605;28;20039;-70
2021/01/12 10:36:29;;;;;;;2.53;0.98;;;9.70;80.10;;;;;;4992188;28;20092;-73
2021/01/12 10:38:55;;;;;;;5.45;1.05;;;9.70;79.80;;;;;;4990450;28;20045;-70
2021/01/12 10:41:21;;;;;;;6.47;1.30;;;9.60;79.10;;;;;;4974186;28;20058;-70
2021/01/12 10:43:50;;;;;;;5.63;1.15;;;9.50;79.40;;;;;;4989420;28;20039;-70
2021/01/12 10:46:16;;;;;;;2.85;1.13;;;9.50;79.80;;;;;;4998501;28;20029;-71
2021/01/12 10:48:42;;;;;;;2.35;0.80;;;9.40;78.90;;;;;;4991479;28;20031;-69
2021/01/12 10:51:08;;;;;;;3.80;0.70;;;9.30;78.70;;;;;;4993115;28;20041;-70
2021/01/12 10:53:34;;;;;;;3.45;0.93;;;9.30;78.60;;;;;;4994994;28;20441;-72
2021/01/12 10:56:01;;;;;;;2.13;0.70;;;9.30;78.80;;;;;;4989938;28;20209;-74
2021/01/12 10:58:28;;;;;;;4.03;0.95;;;9.30;78.80;;;;;;4999936;28;20042;-73
2021/01/12 11:00:54;;;;;;;3.08;0.82;;;9.30;78.90;;;;;;4996034;28;20849;-70
2021/01/12 11:03:19;;;;;;;4.25;0.95;;;9.30;79.10;;;;;;4991049;28;20093;-70
2021/01/12 11:05:46;;;;;;;4.93;0.70;;;9.30;79.70;;;;;;4987030;28;20034;-71
2021/01/12 11:08:12;;;;;;;3.08;0.50;;;9.50;79.60;;;;;;4999104;28;20126;-72
2021/01/12 11:10:38;;;;;;;11.32;1.38;;;9.60;78.80;;;;;;4976550;28;20049;-73
2021/01/12 11:13:04;;;;;;;1.00;0.55;;;9.70;77.70;;;;;;4995120;28;20808;-73
2021/01/12 11:15:30;;;;;;;3.65;0.88;;;9.80;77.20;;;;;;4990543;28;20062;-72
2021/01/12 11:17:56;;;;;;;3.67;0.98;;;9.80;76.70;;;;;;4978326;28;20121;-72
2021/01/12 11:20:21;;;;;;;4.50;1.00;;;9.70;76.00;;;;;;4992372;28;20344;-72
2021/01/12 11:22:47;;;;;;;3.28;1.05;;;9.60;76.50;;;;;;4990783;28;20030;-73
2021/01/12 11:25:13;;;;;;;2.83;0.88;;;9.50;76.80;;;;;;4990483;28;20077;-73
2021/01/12 11:27:39;;;;;;;6.93;1.30;;;9.50;76.60;;;;;;4990901;28;20077;-72
2021/01/12 11:30:07;;;;;;;3.40;0.70;;;9.50;76.70;;;;;;4993706;28;20042;-72
2021/01/12 11:32:33;;;;;;;1.90;0.77;;;9.40;77.00;;;;;;4992842;28;20038;-71
2021/01/12 11:35:00;;;;;;;6.30;1.25;;;9.50;77.00;;;;;;4998139;28;20030;-71
2021/01/12 11:37:26;;;;;;;4.68;1.02;;;9.50;76.00;;;;;;4993699;28;20038;-70
2021/01/12 11:39:52;;;;;;;5.75;1.50;;;9.50;74.70;;;;;;5000472;28;20387;-71
2021/01/12 11:42:18;;;;;;;3.63;0.80;;;9.50;75.40;;;;;;4998964;28;20450;-70
2021/01/12 11:44:44;;;;;;;7.35;1.85;;;9.40;74.60;;;;;;4996682;28;20057;-70
2021/01/12 11:47:10;;;;;;;8.10;1.27;;;9.50;75.10;;;;;;4994112;28;20104;-71
2021/01/12 11:49:36;;;;;;;7.07;1.10;;;9.50;74.00;;;;;;4994266;28;20046;-70
2021/01/12 11:52:09;;;;;;;9.50;1.50;;;9.50;73.80;;;;;;4973619;28;20046;-74
2021/01/12 11:54:35;;;;;;;12.87;1.93;;;9.60;73.00;;;;;;4993453;28;20352;-76
2021/01/12 11:57:03;;;;;;;8.32;1.55;;;9.60;72.50;;;;;;4987428;28;20048;-72
2021/01/12 11:59:34;;;;;;;6.95;0.98;;;9.70;73.00;;;;;;4992171;28;20030;-71
2021/01/12 12:02:00;;;;;;;6.80;1.63;;;9.80;72.30;;;;;;4990666;28;20113;-72
2021/01/12 12:04:26;;;;;;;6.75;1.30;;;9.90;70.30;;;;;;4990487;28;20624;-68
2021/01/12 12:06:55;;;;;;;8.63;1.63;;;10.00;70.50;;;;;;4989374;28;20052;-71
2021/01/12 12:09:21;;;;;;;4.47;1.30;;;10.00;68.10;;;;;;4992750;28;20471;-70
2021/01/12 12:11:48;;;;;;;6.50;1.38;;;10.00;68.00;;;;;;4976622;28;20041;-74
2021/01/12 12:14:15;;;;;;;3.70;1.20;;;10.00;66.90;;;;;;4989244;28;20029;-73
2021/01/12 12:16:46;;;;;;;8.68;1.35;;;10.00;68.20;;;;;;4992843;28;20064;-72
2021/01/12 12:19:14;;;;;;;2.00;1.00;;;10.20;67.00;;;;;;5007674;28;20053;-72
2021/01/12 12:21:58;;;;;;;7.38;1.13;;;10.20;67.20;;;;;;4993638;28;20058;-72
2021/01/12 12:24:29;;;;;;;5.78;1.02;;;10.20;65.90;;;;;;4994875;28;20057;-71
2021/01/12 12:26:58;;;;;;;5.05;1.10;;;10.20;64.40;;;;;;4996194;28;20077;-70
2021/01/12 12:29:23;;;;;;;3.67;1.00;;;10.00;63.10;;;;;;4991860;28;20798;-75
2021/01/12 12:31:53;;;;;;;5.95;1.10;;;9.80;63.40;;;;;;4989688;28;20045;-71
2021/01/12 12:34:19;;;;;;;4.28;1.10;;;9.80;64.80;;;;;;4975491;28;20400;-71
2021/01/12 12:36:45;;;;;;;7.13;1.17;;;9.80;65.50;;;;;;4990187;28;20022;-72
2021/01/12 12:39:10;;;;;;;7.40;1.42;;;9.90;65.40;;;;;;4979992;28;20065;-75
2021/01/12 12:41:36;;;;;;;8.60;1.25;;;9.90;63.80;;;;;;4992234;28;20054;-74
2021/01/12 12:44:02;;;;;;;10.00;2.30;;;10.00;64.00;;;;;;4993205;28;20062;-70
2021/01/12 12:46:28;;;;;;;4.13;0.88;;;10.10;63.10;;;;;;4995278;28;20033;-71
2021/01/12 12:48:54;;;;;;;9.50;2.05;;;10.10;62.80;;;;;;4982128;28;20053;-72